Terminal Aerodrome Forecast
Issued by NWS

Home | Current Version | Previous Version | Text Only | Print | Product List | Glossary On
Versions: 1 2 3 4 5 6 7 8 9 10 11 12 13
000
FTUS45 KPIH 051120
TAFSUN
TAF
KSUN 051120Z 0512/0612 31007KT P6SM FEW050 BKN120
     FM051900 15010KT P6SM VCTS SCT050CB BKN120
     FM052200 26012G18KT P6SM VCTS SCT050CB BKN120
     FM060100 VRB06KT P6SM FEW050 BKN120
     FM060400 32007KT P6SM BKN120=

USA.gov is the U.S. government's official web portal to all federal, state and local government web resources and services.